Time;durP1;ratioP1;P1;durP2;ratioP2;P2;SDS_P1;SDS_P2;PMS_P1;PMS_P2;Temp;Humidity;BMP_temperature;BMP_pressure;BME280_temperature;BME280_humidity;BME280_pressure;Samples;Min_cycle;Max_cycle;Signal;HPM_P1;HPM_P2
2024/01/14 00:00:33;;;;;;;49.60;20.97;;;-4.00;99.90;;;;;;4145214;28;20318;-58
2024/01/14 00:02:35;;;;;;;41.97;18.70;;;-4.10;99.90;;;;;;4144985;28;20271;-60
2024/01/14 00:04:36;;;;;;;41.10;19.13;;;-4.10;99.90;;;;;;4144589;28;20687;-60
2024/01/14 00:06:37;;;;;;;40.97;19.17;;;-4.10;99.90;;;;;;4145138;28;20339;-59
2024/01/14 00:08:38;;;;;;;56.83;25.73;;;-4.10;99.90;;;;;;4144720;28;20353;-57
2024/01/14 00:10:39;;;;;;;47.00;21.03;;;-4.00;99.90;;;;;;4145434;28;20275;-59
2024/01/14 00:12:41;;;;;;;47.93;20.20;;;-4.10;99.90;;;;;;4145158;28;20259;-58
2024/01/14 00:14:42;;;;;;;43.90;19.63;;;-4.10;99.90;;;;;;4145241;28;20267;-59
2024/01/14 00:16:43;;;;;;;48.17;20.33;;;-4.10;99.90;;;;;;4143519;28;20271;-58
2024/01/14 00:18:44;;;;;;;44.83;20.00;;;-4.10;99.90;;;;;;4145310;28;20755;-57
2024/01/14 00:20:45;;;;;;;41.67;18.27;;;-4.10;99.90;;;;;;4144166;28;20275;-61
2024/01/14 00:22:47;;;;;;;51.70;23.07;;;-4.20;99.90;;;;;;4144538;28;20325;-59
2024/01/14 00:24:49;;;;;;;46.60;19.80;;;-4.20;99.90;;;;;;4145006;28;20349;-60
2024/01/14 00:26:50;;;;;;;52.53;20.50;;;-4.30;99.90;;;;;;4145041;28;20279;-62
2024/01/14 00:28:55;;;;;;;57.47;22.60;;;-4.30;99.90;;;;;;4145181;28;20755;-60
2024/01/14 00:30:56;;;;;;;47.23;20.43;;;-4.40;99.90;;;;;;4143345;28;20358;-60
2024/01/14 00:32:58;;;;;;;53.13;21.97;;;-4.40;99.90;;;;;;4145115;28;20275;-60
2024/01/14 00:34:59;;;;;;;50.83;20.20;;;-4.40;99.90;;;;;;4143185;28;20275;-59
2024/01/14 00:37:00;;;;;;;52.15;21.30;;;-4.50;99.90;;;;;;4144615;28;20271;-60
2024/01/14 00:39:02;;;;;;;59.07;24.97;;;-4.50;99.90;;;;;;4144348;28;20088;-61
2024/01/14 00:41:04;;;;;;;70.53;27.97;;;-4.50;99.90;;;;;;4143250;28;20259;-60
2024/01/14 00:43:05;;;;;;;73.83;28.57;;;-4.60;99.90;;;;;;4144557;28;20321;-62
2024/01/14 00:45:07;;;;;;;73.13;29.48;;;-4.60;99.90;;;;;;4144512;28;20767;-60
2024/01/14 00:47:08;;;;;;;76.43;30.88;;;-4.70;99.90;;;;;;4144358;28;20080;-59
2024/01/14 00:49:09;;;;;;;74.85;30.85;;;-4.70;99.90;;;;;;4144647;28;20364;-61
2024/01/14 00:51:11;;;;;;;66.68;28.98;;;-4.80;99.90;;;;;;4144629;28;20042;-59
2024/01/14 00:53:12;;;;;;;69.40;29.85;;;-4.80;99.90;;;;;;4144679;28;20038;-60
2024/01/14 00:55:14;;;;;;;57.67;26.05;;;-4.90;99.90;;;;;;4145165;28;20569;-57
2024/01/14 00:57:15;;;;;;;67.72;32.03;;;-4.90;99.90;;;;;;4144571;28;20030;-60
2024/01/14 00:59:16;;;;;;;65.00;27.73;;;-4.90;99.90;;;;;;4144525;28;20030;-60
2024/01/14 01:01:17;;;;;;;56.10;25.75;;;-4.90;99.90;;;;;;4143923;28;20263;-60
2024/01/14 01:03:19;;;;;;;58.17;25.13;;;-5.00;99.90;;;;;;4144578;28;20076;-61
2024/01/14 01:05:20;;;;;;;56.53;24.80;;;-5.00;99.90;;;;;;4144500;28;20050;-58
2024/01/14 01:07:21;;;;;;;49.90;20.83;;;-5.10;99.90;;;;;;4143205;28;20397;-61
2024/01/14 01:09:22;;;;;;;46.58;19.25;;;-5.10;99.90;;;;;;4144187;28;20271;-59
2024/01/14 01:11:23;;;;;;;48.55;19.00;;;-5.10;99.90;;;;;;4144444;28;20038;-59
2024/01/14 01:13:25;;;;;;;42.25;19.13;;;-5.10;99.90;;;;;;4144156;28;20042;-56
2024/01/14 01:15:26;;;;;;;47.20;19.10;;;-5.10;99.90;;;;;;4143880;28;20038;-60
2024/01/14 01:17:27;;;;;;;45.20;20.60;;;-5.10;99.90;;;;;;4144285;28;20038;-59
2024/01/14 01:19:28;;;;;;;46.17;19.98;;;-5.10;99.90;;;;;;4144320;28;20034;-61
2024/01/14 01:21:29;;;;;;;65.47;28.17;;;-5.10;99.90;;;;;;4144251;28;20034;-60
2024/01/14 01:23:30;;;;;;;66.90;28.30;;;-5.20;99.90;;;;;;4144413;28;20038;-58
2024/01/14 01:25:32;;;;;;;71.60;29.00;;;-5.20;99.90;;;;;;4144345;28;20054;-59
2024/01/14 01:27:33;;;;;;;64.38;27.08;;;-5.20;99.90;;;;;;4143393;28;20513;-59
2024/01/14 01:29:34;;;;;;;50.78;21.30;;;-5.30;99.90;;;;;;4144271;28;20092;-60
2024/01/14 01:31:35;;;;;;;49.78;22.08;;;-5.30;99.90;;;;;;4144140;28;20038;-56
2024/01/14 01:33:36;;;;;;;48.75;20.17;;;-5.40;99.90;;;;;;4143932;28;20034;-57
2024/01/14 01:35:37;;;;;;;44.55;19.48;;;-5.40;99.90;;;;;;4143831;28;20088;-59
2024/01/14 01:37:39;;;;;;;43.80;18.80;;;-5.40;99.90;;;;;;4144043;28;20026;-60
2024/01/14 01:39:40;;;;;;;47.67;20.40;;;-5.40;99.90;;;;;;4144006;28;20100;-61
2024/01/14 01:41:41;;;;;;;44.45;20.45;;;-5.40;99.90;;;;;;4143427;28;20030;-60
2024/01/14 01:43:43;;;;;;;47.08;20.85;;;-5.40;99.90;;;;;;4144040;28;20509;-58
2024/01/14 01:45:44;;;;;;;44.13;19.23;;;-5.50;99.90;;;;;;4143628;28;20053;-57
2024/01/14 01:47:45;;;;;;;49.22;19.42;;;-5.50;99.90;;;;;;4144036;28;21143;-60
2024/01/14 01:49:46;;;;;;;48.28;19.92;;;-5.50;99.90;;;;;;4143739;28;20026;-60
2024/01/14 01:51:49;;;;;;;47.13;21.52;;;-5.60;99.90;;;;;;4143369;28;20041;-59
2024/01/14 01:53:51;;;;;;;52.22;22.52;;;-5.60;99.90;;;;;;4143168;28;20041;-61
2024/01/14 01:55:53;;;;;;;57.88;25.17;;;-5.60;99.90;;;;;;4143815;28;20045;-59
2024/01/14 01:57:54;;;;;;;66.35;28.75;;;-5.60;99.90;;;;;;4144078;28;20589;-58
2024/01/14 01:59:56;;;;;;;78.47;32.67;;;-5.70;99.90;;;;;;4143359;28;20029;-58
2024/01/14 02:01:58;;;;;;;56.13;24.27;;;-5.70;99.90;;;;;;4141964;28;20038;-60
2024/01/14 02:04:01;;;;;;;55.50;23.67;;;-5.70;99.90;;;;;;4143847;28;20053;-59
2024/01/14 02:06:05;;;;;;;51.42;22.95;;;-5.70;99.90;;;;;;4143233;28;20085;-59
2024/01/14 02:08:07;;;;;;;52.28;21.70;;;-5.80;99.90;;;;;;4143868;28;20442;-56
2024/01/14 02:10:08;;;;;;;52.70;21.73;;;-5.70;99.90;;;;;;4143410;28;20050;-55
2024/01/14 02:12:09;;;;;;;53.70;22.55;;;-5.80;99.90;;;;;;4143225;28;20103;-57
2024/01/14 02:14:11;;;;;;;51.17;22.27;;;-5.80;99.90;;;;;;4143704;28;20120;-57
2024/01/14 02:16:13;;;;;;;59.10;22.25;;;-5.80;99.90;;;;;;4143264;28;20050;-58
2024/01/14 02:18:14;;;;;;;53.83;22.05;;;-5.80;99.90;;;;;;4143548;28;20689;-59
2024/01/14 02:20:15;;;;;;;51.08;22.73;;;-5.90;99.90;;;;;;4143867;28;20587;-60
2024/01/14 02:22:24;;;;;;;46.72;21.23;;;-5.90;99.90;;;;;;4143727;28;20022;-59
2024/01/14 02:24:32;;;;;;;44.88;19.33;;;-5.90;99.90;;;;;;4143459;28;20026;-60
2024/01/14 02:26:34;;;;;;;48.88;19.40;;;-5.90;99.90;;;;;;4143417;28;20045;-58
2024/01/14 02:28:35;;;;;;;51.45;23.10;;;-5.90;99.90;;;;;;4143538;28;20097;-60
2024/01/14 02:30:37;;;;;;;51.13;21.05;;;-5.90;99.90;;;;;;4143696;28;20046;-57
2024/01/14 02:32:39;;;;;;;54.45;23.23;;;-6.00;99.90;;;;;;4144085;28;20076;-60
2024/01/14 02:34:40;;;;;;;54.63;22.13;;;-6.00;99.90;;;;;;4143758;28;20042;-55
2024/01/14 02:36:42;;;;;;;50.10;22.20;;;-6.10;99.90;;;;;;4143494;28;20026;-59
2024/01/14 02:38:43;;;;;;;51.58;22.38;;;-6.20;99.90;;;;;;4144026;28;20030;-60
2024/01/14 02:40:44;;;;;;;52.78;22.48;;;-6.30;99.90;;;;;;4143592;28;20034;-57
2024/01/14 02:42:46;;;;;;;55.03;22.13;;;-6.40;99.90;;;;;;4143588;28;20100;-59
2024/01/14 02:44:47;;;;;;;60.55;22.13;;;-6.50;99.90;;;;;;4145276;28;20038;-61
2024/01/14 02:46:48;;;;;;;58.97;22.30;;;-6.50;99.90;;;;;;4146866;28;20030;-60
2024/01/14 02:48:49;;;;;;;48.42;21.55;;;-6.50;99.90;;;;;;4146605;28;20057;-59
2024/01/14 02:50:50;;;;;;;53.08;21.45;;;-6.50;99.90;;;;;;4147014;28;20092;-59
2024/01/14 02:52:52;;;;;;;55.95;23.77;;;-6.50;99.90;;;;;;4146999;28;20084;-61
2024/01/14 02:54:53;;;;;;;54.20;25.40;;;-6.50;99.90;;;;;;4146644;28;20065;-59
2024/01/14 02:56:54;;;;;;;63.25;28.45;;;-6.50;99.90;;;;;;4146656;28;20108;-60
2024/01/14 02:58:56;;;;;;;56.13;23.25;;;-6.50;99.90;;;;;;4146790;28;20034;-58
2024/01/14 03:00:57;;;;;;;53.63;22.70;;;-6.40;99.90;;;;;;4145378;28;20022;-59
2024/01/14 03:02:58;;;;;;;49.72;22.50;;;-6.50;99.90;;;;;;4146877;28;20699;-61
2024/01/14 03:05:00;;;;;;;58.10;23.08;;;-6.50;99.90;;;;;;4146528;28;20410;-58
2024/01/14 03:07:01;;;;;;;53.80;25.70;;;-6.50;99.90;;;;;;4146562;28;20473;-61
2024/01/14 03:09:02;;;;;;;60.95;26.08;;;-6.50;99.90;;;;;;4146314;28;20124;-60
2024/01/14 03:11:04;;;;;;;66.70;28.17;;;-6.40;99.90;;;;;;4146935;28;20038;-61
2024/01/14 03:13:06;;;;;;;59.35;25.77;;;-6.50;99.90;;;;;;4146749;28;20474;-58
2024/01/14 03:15:08;;;;;;;61.30;26.88;;;-6.50;99.90;;;;;;4146690;28;20437;-55
2024/01/14 03:17:09;;;;;;;81.13;32.80;;;-6.50;99.90;;;;;;4146603;28;20122;-59
2024/01/14 03:19:10;;;;;;;61.72;27.52;;;-6.50;99.90;;;;;;4146547;28;20042;-60
2024/01/14 03:21:18;;;;;;;71.43;31.60;;;-6.50;99.90;;;;;;4146624;28;20092;-60
2024/01/14 03:23:19;;;;;;;68.07;28.83;;;-6.50;99.90;;;;;;4146348;28;20474;-58
2024/01/14 03:25:20;;;;;;;56.03;24.95;;;-6.50;99.90;;;;;;4146266;28;20120;-60
2024/01/14 03:27:22;;;;;;;54.20;23.65;;;-6.50;99.90;;;;;;4146174;28;20441;-58
2024/01/14 03:29:23;;;;;;;49.67;21.30;;;-6.40;99.90;;;;;;4146578;28;20041;-60
2024/01/14 03:31:24;;;;;;;50.00;21.80;;;-6.40;99.90;;;;;;4146010;28;20073;-59
2024/01/14 03:33:25;;;;;;;54.38;21.77;;;-6.40;99.90;;;;;;4146300;28;20037;-59
2024/01/14 03:35:26;;;;;;;50.88;21.23;;;-6.40;99.90;;;;;;4146172;28;20041;-58
2024/01/14 03:37:27;;;;;;;46.03;20.83;;;-6.50;99.90;;;;;;4146288;28;20441;-59
2024/01/14 03:39:29;;;;;;;47.28;19.88;;;-6.50;99.90;;;;;;4146343;28;20111;-58
2024/01/14 03:41:30;;;;;;;51.25;20.60;;;-6.60;99.90;;;;;;4145624;28;20089;-59
2024/01/14 03:43:31;;;;;;;48.30;20.38;;;-6.50;99.90;;;;;;4146332;28;20046;-59
2024/01/14 03:45:33;;;;;;;54.47;21.35;;;-6.50;99.90;;;;;;4146205;28;20046;-60
2024/01/14 03:47:34;;;;;;;50.58;19.85;;;-6.60;99.90;;;;;;4146076;28;20122;-59
2024/01/14 03:49:35;;;;;;;53.40;23.13;;;-6.70;99.90;;;;;;4145924;28;20107;-61
2024/01/14 03:51:36;;;;;;;47.50;20.55;;;-6.70;99.90;;;;;;4146105;28;20495;-60
2024/01/14 03:53:37;;;;;;;44.05;19.83;;;-6.70;99.90;;;;;;4145959;28;20038;-57
2024/01/14 03:55:38;;;;;;;48.35;19.98;;;-6.70;99.90;;;;;;4145961;28;20476;-58
2024/01/14 03:57:40;;;;;;;55.13;25.13;;;-6.80;99.90;;;;;;4145686;28;20022;-59
2024/01/14 03:59:41;;;;;;;52.38;23.33;;;-6.70;99.90;;;;;;4146030;28;20041;-58
2024/01/14 04:01:43;;;;;;;56.78;24.15;;;-6.80;99.90;;;;;;4145781;28;20552;-57
2024/01/14 04:03:45;;;;;;;53.85;24.58;;;-6.80;99.90;;;;;;4146168;28;20046;-60
2024/01/14 04:05:46;;;;;;;49.45;21.70;;;-6.80;99.90;;;;;;4145980;28;20049;-55
2024/01/14 04:07:49;;;;;;;41.83;17.63;;;-6.80;99.90;;;;;;4145777;28;20038;-58
2024/01/14 04:09:50;;;;;;;42.25;17.63;;;-6.70;99.90;;;;;;4145848;28;20042;-60
2024/01/14 04:11:51;;;;;;;45.53;19.17;;;-6.70;99.90;;;;;;4145633;28;20046;-59
2024/01/14 04:13:53;;;;;;;45.97;18.67;;;-6.70;99.90;;;;;;4145958;28;20030;-61
2024/01/14 04:15:57;;;;;;;44.08;17.95;;;-6.70;99.90;;;;;;4145687;28;20077;-60
2024/01/14 04:17:58;;;;;;;44.72;19.23;;;-6.70;99.90;;;;;;4145715;28;20105;-60
2024/01/14 04:20:00;;;;;;;46.95;19.20;;;-6.80;99.90;;;;;;4145872;28;20081;-61
2024/01/14 04:22:01;;;;;;;37.22;17.27;;;-6.80;99.90;;;;;;4145883;28;20096;-60
2024/01/14 04:24:03;;;;;;;40.30;18.58;;;-6.80;99.90;;;;;;4145257;28;20033;-56
2024/01/14 04:26:07;;;;;;;44.28;19.63;;;-6.80;99.90;;;;;;4145681;28;20049;-58
2024/01/14 04:28:08;;;;;;;45.88;21.02;;;-6.80;99.90;;;;;;4145444;28;20387;-60
2024/01/14 04:30:10;;;;;;;49.30;22.80;;;-6.80;99.90;;;;;;4144070;28;20096;-59
2024/01/14 04:32:12;;;;;;;44.72;19.75;;;-6.80;99.90;;;;;;4144981;28;20124;-60
2024/01/14 04:34:13;;;;;;;41.35;18.85;;;-6.80;99.90;;;;;;4145542;28;20046;-60
2024/01/14 04:36:15;;;;;;;43.25;18.98;;;-6.80;99.90;;;;;;4145609;28;20092;-56
2024/01/14 04:38:16;;;;;;;42.20;20.08;;;-6.80;99.90;;;;;;4145566;28;20506;-61
2024/01/14 04:40:18;;;;;;;42.85;17.38;;;-6.80;99.90;;;;;;4145198;28;20030;-60
2024/01/14 04:42:19;;;;;;;37.53;16.73;;;-6.80;99.90;;;;;;4144937;28;20294;-61
2024/01/14 04:44:20;;;;;;;46.60;19.60;;;-6.80;99.90;;;;;;4145813;28;20037;-59
2024/01/14 04:46:21;;;;;;;40.53;18.27;;;-6.80;99.90;;;;;;4145254;28;20061;-58
2024/01/14 04:48:23;;;;;;;50.05;19.30;;;-6.80;99.90;;;;;;4145138;28;20021;-58
2024/01/14 04:50:24;;;;;;;41.88;20.00;;;-6.80;99.90;;;;;;4144905;28;20454;-62
2024/01/14 04:52:25;;;;;;;40.97;17.38;;;-6.90;99.90;;;;;;4143753;28;20522;-60
2024/01/14 04:54:26;;;;;;;45.30;17.23;;;-6.80;99.90;;;;;;4144511;28;20100;-60
2024/01/14 04:56:28;;;;;;;40.17;16.52;;;-6.80;99.90;;;;;;4144981;28;20111;-58
2024/01/14 04:58:29;;;;;;;37.70;16.45;;;-6.80;99.90;;;;;;4145234;28;20467;-58
2024/01/14 05:00:30;;;;;;;42.25;18.00;;;-6.80;99.90;;;;;;4145091;28;21255;-58
2024/01/14 05:02:31;;;;;;;43.75;17.27;;;-6.80;99.90;;;;;;4145093;28;20482;-61
2024/01/14 05:04:33;;;;;;;36.88;16.25;;;-6.80;99.90;;;;;;4145154;28;20038;-59
2024/01/14 05:06:35;;;;;;;41.58;17.85;;;-6.80;99.90;;;;;;4144579;28;20038;-58
2024/01/14 05:08:37;;;;;;;41.67;16.67;;;-6.80;99.90;;;;;;4144662;28;20030;-55
2024/01/14 05:10:39;;;;;;;37.67;15.32;;;-6.90;99.90;;;;;;4144824;28;20081;-59
2024/01/14 05:12:40;;;;;;;34.22;14.13;;;-6.90;99.90;;;;;;4144578;28;20453;-60
2024/01/14 05:14:41;;;;;;;40.40;16.95;;;-6.90;99.90;;;;;;4145068;28;20030;-60
2024/01/14 05:16:42;;;;;;;41.00;17.00;;;-6.90;99.90;;;;;;4144878;28;20065;-60
2024/01/14 05:18:44;;;;;;;40.08;15.80;;;-6.90;99.90;;;;;;4144645;28;20079;-61
2024/01/14 05:20:45;;;;;;;45.33;17.30;;;-6.90;99.90;;;;;;4144431;28;20080;-60
2024/01/14 05:22:46;;;;;;;36.83;15.98;;;-6.90;99.90;;;;;;4144270;28;20417;-59
2024/01/14 05:24:52;;;;;;;37.30;16.08;;;-7.00;99.90;;;;;;4144660;28;20453;-60
2024/01/14 05:26:53;;;;;;;42.35;16.23;;;-7.00;99.90;;;;;;4144393;28;20074;-60
2024/01/14 05:28:59;;;;;;;45.60;18.13;;;-7.00;99.90;;;;;;4144304;28;20045;-59
2024/01/14 05:31:00;;;;;;;49.97;18.15;;;-7.10;99.90;;;;;;4144355;28;20104;-59
2024/01/14 05:33:01;;;;;;;41.50;17.92;;;-7.10;99.90;;;;;;4144504;28;20022;-59
2024/01/14 05:35:03;;;;;;;42.22;18.48;;;-7.10;99.90;;;;;;4144830;28;20037;-59
2024/01/14 05:37:05;;;;;;;42.90;17.50;;;-7.10;99.90;;;;;;4144422;28;20623;-60
2024/01/14 05:39:06;;;;;;;38.65;16.70;;;-7.20;99.90;;;;;;4144287;28;20141;-60
2024/01/14 05:41:07;;;;;;;39.15;15.60;;;-7.20;99.90;;;;;;4144326;28;20085;-61
2024/01/14 05:43:08;;;;;;;36.38;15.80;;;-7.20;99.90;;;;;;4144396;28;20096;-60
2024/01/14 05:45:12;;;;;;;40.03;16.50;;;-7.20;99.90;;;;;;4144886;28;20042;-58
2024/01/14 05:47:13;;;;;;;39.90;16.50;;;-7.30;99.90;;;;;;4144171;28;20053;-61
2024/01/14 05:49:14;;;;;;;48.88;17.70;;;-7.30;99.90;;;;;;4144545;28;20084;-59
2024/01/14 05:51:15;;;;;;;44.53;19.63;;;-7.40;99.90;;;;;;4144356;28;20084;-57
2024/01/14 05:53:17;;;;;;;35.90;16.75;;;-7.50;99.90;;;;;;4144329;28;20030;-60
2024/01/14 05:55:18;;;;;;;42.40;17.00;;;-7.50;99.90;;;;;;4143942;28;20444;-58
2024/01/14 05:57:19;;;;;;;38.83;16.10;;;-7.50;99.90;;;;;;4143902;28;20025;-60
2024/01/14 05:59:20;;;;;;;43.40;18.20;;;-7.50;99.90;;;;;;4143984;28;20022;-59
2024/01/14 06:01:22;;;;;;;39.75;16.55;;;-7.50;99.90;;;;;;4143619;28;20025;-59
2024/01/14 06:03:23;;;;;;;40.88;16.85;;;-7.60;99.90;;;;;;4143974;28;20042;-59
2024/01/14 06:05:24;;;;;;;35.88;16.80;;;-7.60;99.90;;;;;;4144126;28;20084;-59
2024/01/14 06:07:26;;;;;;;36.55;15.57;;;-7.50;99.90;;;;;;4143855;28;20049;-61
2024/01/14 06:09:27;;;;;;;43.42;17.10;;;-7.50;99.90;;;;;;4144054;28;20121;-57
2024/01/14 06:11:28;;;;;;;43.22;15.65;;;-7.50;99.90;;;;;;4143606;28;20076;-60
2024/01/14 06:13:31;;;;;;;41.17;16.15;;;-7.40;99.90;;;;;;4144272;28;20088;-59
2024/01/14 06:15:32;;;;;;;38.72;16.30;;;-7.30;99.90;;;;;;4144120;28;20092;-60
2024/01/14 06:17:33;;;;;;;33.38;14.65;;;-7.30;99.90;;;;;;4144126;28;20560;-60
2024/01/14 06:19:35;;;;;;;38.78;16.02;;;-7.30;99.90;;;;;;4142968;28;20034;-57
2024/01/14 06:21:43;;;;;;;39.13;16.85;;;-7.30;99.90;;;;;;4143957;28;20096;-58
2024/01/14 06:23:44;;;;;;;38.58;17.05;;;-7.20;99.90;;;;;;4143740;28;20360;-60
2024/01/14 06:25:46;;;;;;;40.28;16.08;;;-7.20;99.90;;;;;;4143449;28;20022;-58
2024/01/14 06:27:47;;;;;;;36.78;16.60;;;-7.10;99.90;;;;;;4143429;28;20058;-61
2024/01/14 06:29:48;;;;;;;47.33;16.63;;;-7.10;99.90;;;;;;4143593;28;20034;-58
2024/01/14 06:31:49;;;;;;;51.47;18.67;;;-7.00;99.90;;;;;;4143592;28;20046;-61
2024/01/14 06:33:51;;;;;;;41.15;18.52;;;-7.00;99.90;;;;;;4143940;28;20096;-60
2024/01/14 06:35:52;;;;;;;46.15;17.73;;;-6.90;99.90;;;;;;4143398;28;20026;-57
2024/01/14 06:37:53;;;;;;;43.28;17.48;;;-6.80;99.90;;;;;;4143838;28;20528;-60
2024/01/14 06:39:54;;;;;;;42.80;17.73;;;-6.80;99.90;;;;;;4143796;28;20037;-60
2024/01/14 06:41:55;;;;;;;42.63;18.33;;;-6.60;99.90;;;;;;4143308;28;20026;-61
2024/01/14 06:43:57;;;;;;;42.55;16.88;;;-6.30;99.90;;;;;;4143718;28;20096;-58
2024/01/14 06:45:58;;;;;;;36.75;17.08;;;-6.10;99.90;;;;;;4142432;28;20058;-61
2024/01/14 06:47:59;;;;;;;45.55;18.33;;;-6.00;99.90;;;;;;4143276;28;20092;-59
2024/01/14 06:50:00;;;;;;;47.97;17.85;;;-6.00;99.90;;;;;;4143592;28;20088;-60
2024/01/14 06:52:01;;;;;;;44.63;19.58;;;-6.00;99.90;;;;;;4156182;28;20033;-57
2024/01/14 06:54:03;;;;;;;52.20;20.67;;;-6.00;99.90;;;;;;4160007;28;20037;-59
2024/01/14 06:56:04;;;;;;;46.53;19.00;;;-6.00;99.90;;;;;;4159577;28;20025;-59
2024/01/14 06:58:05;;;;;;;46.53;19.75;;;-5.80;99.90;;;;;;4146453;28;20506;-57
2024/01/14 07:00:10;;;;;;;45.05;20.05;;;-5.80;99.90;;;;;;4143731;28;20827;-57
2024/01/14 07:02:14;;;;;;;39.60;17.63;;;-5.80;99.90;;;;;;4143631;28;20034;-54
2024/01/14 07:04:16;;;;;;;45.03;17.88;;;-5.60;99.90;;;;;;4143598;28;20034;-60
2024/01/14 07:06:17;;;;;;;38.60;17.67;;;-5.30;99.90;;;;;;4143283;28;20525;-59
2024/01/14 07:08:18;;;;;;;42.40;18.88;;;-5.20;99.90;;;;;;4143553;28;20444;-59
2024/01/14 07:10:19;;;;;;;41.25;19.20;;;-5.20;99.90;;;;;;4143600;28;20096;-59
2024/01/14 07:12:20;;;;;;;44.08;18.35;;;-5.20;99.90;;;;;;4143482;28;20034;-57
2024/01/14 07:14:25;;;;;;;45.20;17.98;;;-5.20;99.90;;;;;;4143539;28;20038;-57
2024/01/14 07:16:26;;;;;;;90.57;35.35;;;-5.20;99.90;;;;;;4143798;28;20128;-58
2024/01/14 07:18:27;;;;;;;86.45;34.72;;;-5.10;99.90;;;;;;4143303;28;20418;-60
2024/01/14 07:20:29;;;;;;;73.53;30.52;;;-5.00;99.90;;;;;;4143503;28;20437;-59
2024/01/14 07:22:30;;;;;;;44.85;22.08;;;-5.00;99.90;;;;;;4143260;28;20088;-57
2024/01/14 07:24:31;;;;;;;43.47;17.77;;;-5.00;99.90;;;;;;4143299;28;20447;-59
2024/01/14 07:26:32;;;;;;;47.00;20.03;;;-5.20;99.90;;;;;;4142744;28;20747;-60
2024/01/14 07:28:34;;;;;;;47.65;20.25;;;-5.30;99.90;;;;;;4142980;28;20291;-60
2024/01/14 07:30:35;;;;;;;43.85;18.77;;;-5.30;99.90;;;;;;4143269;28;20076;-60
2024/01/14 07:32:36;;;;;;;43.88;17.70;;;-5.30;99.90;;;;;;4146056;28;20042;-58
2024/01/14 07:34:38;;;;;;;58.95;22.95;;;-5.10;99.90;;;;;;4145785;28;20037;-54
2024/01/14 07:36:39;;;;;;;44.42;17.30;;;-5.20;99.90;;;;;;4145894;28;20042;-56
2024/01/14 07:38:41;;;;;;;46.80;18.42;;;-5.30;99.90;;;;;;4146009;28;20038;-59
2024/01/14 07:40:42;;;;;;;44.00;18.80;;;-5.30;99.90;;;;;;4146288;28;20096;-57
2024/01/14 07:42:43;;;;;;;41.95;17.95;;;-5.30;99.90;;;;;;4145917;28;20786;-60
2024/01/14 07:44:44;;;;;;;39.60;16.73;;;-5.30;99.90;;;;;;4146337;28;20026;-58
2024/01/14 07:46:46;;;;;;;44.17;18.70;;;-5.20;99.90;;;;;;4145743;28;20042;-60
2024/01/14 07:48:47;;;;;;;34.63;14.60;;;-5.00;99.90;;;;;;4146024;28;20030;-60
2024/01/14 07:50:48;;;;;;;31.83;14.60;;;-4.80;99.90;;;;;;4145943;28;20042;-62
2024/01/14 07:52:50;;;;;;;34.95;15.82;;;-4.60;99.90;;;;;;4146079;28;20041;-56
2024/01/14 07:54:51;;;;;;;38.67;16.48;;;-4.50;99.90;;;;;;4145686;28;20030;-60
2024/01/14 07:56:52;;;;;;;41.00;15.98;;;-4.30;99.90;;;;;;4145520;28;20465;-60
2024/01/14 07:58:53;;;;;;;39.28;16.17;;;-4.10;99.90;;;;;;4145880;28;20080;-57
2024/01/14 08:00:55;;;;;;;35.03;14.90;;;-4.00;99.90;;;;;;4145081;28;20108;-59
2024/01/14 08:02:56;;;;;;;29.52;14.07;;;-3.90;99.90;;;;;;4145877;28;20134;-58
2024/01/14 08:04:57;;;;;;;29.15;12.93;;;-3.80;99.90;;;;;;4145131;28;20950;-60
2024/01/14 08:06:58;;;;;;;28.27;12.23;;;-3.70;99.90;;;;;;4145341;28;20108;-60
2024/01/14 08:08:59;;;;;;;38.90;13.57;;;-3.60;99.90;;;;;;4145391;28;20310;-60
2024/01/14 08:11:01;;;;;;;30.93;13.47;;;-3.50;99.90;;;;;;4145289;28;20329;-59
2024/01/14 08:13:03;;;;;;;31.53;14.97;;;-3.60;99.90;;;;;;4145170;28;20772;-61
2024/01/14 08:15:04;;;;;;;51.07;21.37;;;-3.60;99.90;;;;;;4145807;28;20418;-57
2024/01/14 08:17:05;;;;;;;46.37;20.17;;;-3.70;99.90;;;;;;4145393;28;20672;-60
2024/01/14 08:19:07;;;;;;;39.40;15.63;;;-3.70;99.90;;;;;;4145213;28;20821;-61
2024/01/14 08:21:09;;;;;;;34.33;13.97;;;-3.60;99.90;;;;;;4145222;28;20732;-59
2024/01/14 08:23:10;;;;;;;40.27;15.80;;;-3.50;99.90;;;;;;4144858;28;20585;-56
2024/01/14 08:25:11;;;;;;;37.87;15.90;;;-3.40;99.90;;;;;;4145054;28;20267;-56
2024/01/14 08:27:14;;;;;;;41.63;18.97;;;-3.40;99.90;;;;;;4144891;28;20384;-57
2024/01/14 08:29:16;;;;;;;30.70;14.83;;;-3.30;99.90;;;;;;4145340;28;20333;-63
2024/01/14 08:31:17;;;;;;;53.23;20.73;;;-3.30;99.90;;;;;;4145476;28;20279;-60
2024/01/14 08:33:19;;;;;;;64.83;25.57;;;-3.30;99.90;;;;;;4134453;28;20275;-59
2024/01/14 08:35:23;;;;;;;73.63;31.03;;;-3.20;99.90;;;;;;4144637;28;20279;-58
2024/01/14 08:37:29;;;;;;;68.60;27.03;;;-3.10;99.90;;;;;;4144884;28;20267;-51
2024/01/14 08:39:30;;;;;;;38.93;17.60;;;-3.10;99.90;;;;;;4144594;28;20821;-60
2024/01/14 08:41:31;;;;;;;38.50;15.07;;;-3.10;99.90;;;;;;4143909;28;20695;-52
2024/01/14 08:43:33;;;;;;;30.03;14.00;;;-3.00;99.90;;;;;;4144226;28;20325;-53
2024/01/14 08:45:34;;;;;;;30.57;14.10;;;-2.90;99.90;;;;;;4145077;28;20306;-57
2024/01/14 08:47:35;;;;;;;32.87;13.40;;;-2.90;99.90;;;;;;4145042;28;20295;-60
2024/01/14 08:49:39;;;;;;;36.00;15.40;;;-2.90;99.90;;;;;;4145301;28;20912;-58
2024/01/14 08:51:40;;;;;;;29.87;14.20;;;-2.90;99.90;;;;;;4145545;28;20774;-62
2024/01/14 08:53:41;;;;;;;35.97;15.47;;;-2.80;99.90;;;;;;4145283;28;20271;-59
2024/01/14 08:55:42;;;;;;;32.27;14.20;;;-2.80;99.90;;;;;;4145389;28;20310;-58
2024/01/14 08:57:44;;;;;;;31.83;14.20;;;-3.00;99.90;;;;;;4144632;28;20266;-61
2024/01/14 08:59:45;;;;;;;37.90;15.57;;;-3.10;99.90;;;;;;4144222;28;20284;-60
2024/01/14 09:01:46;;;;;;;35.33;14.30;;;-2.90;99.90;;;;;;4144017;28;20281;-61
2024/01/14 09:03:47;;;;;;;34.90;14.33;;;-3.00;99.90;;;;;;4144968;28;20279;-62
2024/01/14 09:05:48;;;;;;;35.73;14.17;;;-2.90;99.90;;;;;;4144749;28;20271;-58
2024/01/14 09:07:50;;;;;;;46.30;19.40;;;-3.10;99.90;;;;;;4144690;28;20681;-59
2024/01/14 09:09:51;;;;;;;44.00;19.17;;;-3.20;99.90;;;;;;4145081;28;20263;-58
2024/01/14 09:11:52;;;;;;;44.30;17.27;;;-3.10;99.90;;;;;;4144758;28;20324;-58
2024/01/14 09:13:53;;;;;;;42.27;15.83;;;-3.10;99.90;;;;;;4144875;28;20267;-59
2024/01/14 09:15:54;;;;;;;39.43;16.50;;;-3.20;99.90;;;;;;4144725;28;20263;-58
2024/01/14 09:17:56;;;;;;;37.43;16.17;;;-3.20;99.90;;;;;;4145002;28;20744;-57
2024/01/14 09:19:57;;;;;;;35.90;16.00;;;-3.10;99.90;;;;;;4144464;28;20263;-59
2024/01/14 09:21:58;;;;;;;35.80;15.77;;;-3.00;99.90;;;;;;4144593;28;20275;-59
2024/01/14 09:24:00;;;;;;;36.97;16.40;;;-3.00;99.90;;;;;;4144346;28;20698;-60
2024/01/14 09:26:01;;;;;;;33.77;15.43;;;-2.90;99.90;;;;;;4143808;28;20687;-59
2024/01/14 09:28:03;;;;;;;42.00;15.30;;;-2.80;99.90;;;;;;4143496;28;20287;-59
2024/01/14 09:30:05;;;;;;;42.03;18.63;;;-2.70;99.90;;;;;;4142689;28;20271;-59
2024/01/14 09:32:06;;;;;;;41.63;16.57;;;-2.60;99.90;;;;;;4143591;28;20279;-59
2024/01/14 09:34:07;;;;;;;28.77;13.40;;;-2.50;99.90;;;;;;4143631;28;20334;-58
2024/01/14 09:36:09;;;;;;;32.83;14.47;;;-2.50;99.90;;;;;;4144663;28;20337;-59
2024/01/14 09:38:11;;;;;;;36.83;16.23;;;-2.50;99.90;;;;;;4144254;28;20325;-59
2024/01/14 09:40:16;;;;;;;43.73;17.43;;;-2.50;99.90;;;;;;4144397;28;20273;-59
2024/01/14 09:42:49;;;;;;;41.43;16.20;;;-2.50;99.90;;;;;;4144352;28;20731;-60
2024/01/14 09:45:00;;;;;;;41.03;16.83;;;-2.40;99.90;;;;;;4142869;28;20322;-59
2024/01/14 09:47:03;;;;;;;43.30;18.67;;;-2.30;99.90;;;;;;4144135;28;20683;-58
2024/01/14 09:49:05;;;;;;;38.23;16.93;;;-2.20;99.90;;;;;;4143768;28;20345;-60
2024/01/14 09:51:08;;;;;;;47.40;18.87;;;-2.10;99.90;;;;;;4143802;28;20310;-60
2024/01/14 09:53:14;;;;;;;40.07;17.10;;;-2.20;99.90;;;;;;4143683;28;20701;-58
2024/01/14 09:55:16;;;;;;;40.67;16.30;;;-2.30;99.90;;;;;;4143857;28;20287;-59
2024/01/14 09:57:23;;;;;;;40.07;17.63;;;-2.10;99.90;;;;;;4144095;28;20365;-59
2024/01/14 09:59:25;;;;;;;39.50;17.80;;;-2.00;99.90;;;;;;4143515;28;20275;-58
2024/01/14 10:01:31;;;;;;;33.90;15.67;;;-1.90;99.90;;;;;;4143554;28;20321;-59
2024/01/14 10:03:33;;;;;;;37.27;17.13;;;-1.90;99.90;;;;;;4143532;28;20275;-60
2024/01/14 10:05:37;;;;;;;32.97;15.47;;;-1.80;99.90;;;;;;4143613;28;20271;-60
2024/01/14 10:07:41;;;;;;;29.77;13.63;;;-1.70;99.90;;;;;;4143331;28;20763;-60
2024/01/14 10:09:43;;;;;;;38.80;15.63;;;-1.60;99.90;;;;;;4144296;28;20609;-60
2024/01/14 10:11:46;;;;;;;34.77;16.97;;;-1.60;99.90;;;;;;4143856;28;20361;-60
2024/01/14 10:13:48;;;;;;;32.13;14.97;;;-1.60;99.90;;;;;;4143873;28;20329;-59
2024/01/14 10:15:49;;;;;;;34.27;15.37;;;-1.60;99.90;;;;;;4144012;28;20321;-61
2024/01/14 10:17:51;;;;;;;34.97;16.00;;;-1.50;99.90;;;;;;4144027;28;20275;-59